Time;durP1;ratioP1;P1;durP2;ratioP2;P2;SDS_P1;SDS_P2;PMS_P1;PMS_P2;Temp;Humidity;BMP_temperature;BMP_pressure;BME280_temperature;BME280_humidity;BME280_pressure;Samples;Min_cycle;Max_cycle;Signal;HPM_P1;HPM_P2
2023/02/05 00:00:30;;;;;;;12.37;5.27;;;;;;;2.81;93.02;97409.97;5034943;28;20217;-79
2023/02/05 00:02:56;;;;;;;14.37;5.50;;;;;;;2.72;93.07;97415.41;5040288;28;20289;-79
2023/02/05 00:05:21;;;;;;;11.60;4.93;;;;;;;2.73;92.79;97406.81;5028962;28;20189;-80
2023/02/05 00:07:46;;;;;;;8.53;4.17;;;;;;;2.87;91.96;97414.88;5037177;28;20265;-80
2023/02/05 00:10:11;;;;;;;13.73;4.13;;;;;;;2.85;91.54;97408.97;5050385;28;20186;-80
2023/02/05 00:12:37;;;;;;;12.93;3.27;;;;;;;2.91;91.46;97407.91;5044842;28;20209;-80
2023/02/05 00:15:03;;;;;;;8.87;3.33;;;;;;;2.93;91.30;97401.84;5038580;28;20179;-80
2023/02/05 00:17:28;;;;;;;10.57;2.90;;;;;;;2.92;90.91;97392.47;5018974;28;20211;-80
2023/02/05 00:19:54;;;;;;;13.07;3.77;;;;;;;2.81;90.95;97397.13;5040470;28;20202;-81
2023/02/05 00:22:19;;;;;;;6.87;3.30;;;;;;;2.82;91.32;97399.63;5033886;28;20207;-80
2023/02/05 00:24:44;;;;;;;12.97;3.77;;;;;;;2.80;91.62;97406.56;5032989;28;20643;-80
2023/02/05 00:27:10;;;;;;;10.40;3.67;;;;;;;2.83;91.17;97403.06;5037452;28;20191;-79
2023/02/05 00:29:35;;;;;;;15.03;5.73;;;;;;;2.86;90.97;97402.13;5035577;28;20186;-79
2023/02/05 00:32:00;;;;;;;22.07;8.80;;;;;;;2.79;91.27;97401.50;5036237;28;20202;-81
2023/02/05 00:34:26;;;;;;;17.93;9.03;;;;;;;2.84;91.75;97394.47;5053224;28;20193;-80
2023/02/05 00:36:51;;;;;;;22.37;9.80;;;;;;;2.80;91.56;97387.75;5046070;28;20589;-80
2023/02/05 00:39:17;;;;;;;10.07;3.73;;;;;;;2.78;91.68;97402.38;5042314;28;20194;-80
2023/02/05 00:41:43;;;;;;;17.40;8.30;;;;;;;2.79;92.05;97402.31;5019954;28;20205;-80
2023/02/05 00:44:08;;;;;;;12.10;5.50;;;;;;;2.83;91.56;97406.47;5031679;28;20681;-80
2023/02/05 00:46:33;;;;;;;10.63;5.30;;;;;;;2.82;91.16;97411.63;5035008;28;20182;-80
2023/02/05 00:48:59;;;;;;;14.37;5.20;;;;;;;2.78;91.17;97404.94;5039692;28;20187;-81
2023/02/05 00:51:24;;;;;;;9.43;5.27;;;;;;;2.73;91.96;97412.78;5017935;28;20210;-79
2023/02/05 00:53:49;;;;;;;16.13;11.50;;;;;;;2.55;92.98;97404.00;5038549;28;20657;-80
2023/02/05 00:56:14;;;;;;;21.13;15.67;;;;;;;2.60;92.85;97395.34;5027263;28;20196;-80
2023/02/05 00:58:40;;;;;;;32.23;25.43;;;;;;;2.59;92.43;97393.66;5036188;28;20185;-80
2023/02/05 01:01:05;;;;;;;40.03;26.40;;;;;;;2.43;93.52;97388.22;5040695;28;20187;-80
2023/02/05 01:03:30;;;;;;;63.67;41.30;;;;;;;2.40;93.31;97393.47;5040971;28;20174;-80
2023/02/05 01:05:56;;;;;;;65.13;44.13;;;;;;;2.35;93.35;97385.09;5045377;28;20185;-80
2023/02/05 01:08:22;;;;;;;28.73;20.37;;;;;;;2.35;93.56;97388.50;5032572;28;20191;-81
2023/02/05 01:10:49;;;;;;;16.80;10.17;;;;;;;2.29;93.99;97386.13;5021865;28;20201;-80
2023/02/05 01:13:14;;;;;;;16.40;10.23;;;;;;;2.31;93.87;97389.50;5032190;28;20602;-79
2023/02/05 01:15:40;;;;;;;13.23;5.70;;;;;;;2.36;93.07;97386.75;5034829;28;20201;-80
2023/02/05 01:18:05;;;;;;;17.13;4.63;;;;;;;2.28;93.80;97379.31;5033764;28;20190;-80
2023/02/05 01:20:30;;;;;;;8.30;4.03;;;;;;;2.29;93.32;97381.00;5024357;28;20189;-80
2023/02/05 01:22:56;;;;;;;9.73;4.00;;;;;;;2.32;93.81;97375.78;5030010;28;20198;-81
2023/02/05 01:25:21;;;;;;;10.27;4.23;;;;;;;2.22;94.11;97374.44;5035802;28;20297;-80
2023/02/05 01:27:46;;;;;;;10.10;3.53;;;;;;;2.26;93.82;97374.25;5037155;28;20179;-80
2023/02/05 01:30:12;;;;;;;14.50;3.87;;;;;;;2.25;93.96;97371.75;5043309;28;20178;-80
2023/02/05 01:32:39;;;;;;;14.33;3.90;;;;;;;2.24;93.79;97375.22;5034814;28;20206;-81
2023/02/05 01:35:05;;;;;;;13.07;4.53;;;;;;;2.22;93.82;97365.00;5034054;28;20181;-79
2023/02/05 01:37:30;;;;;;;8.53;4.03;;;;;;;2.23;93.39;97361.56;5026456;28;20218;-80
2023/02/05 01:39:55;;;;;;;14.20;4.53;;;;;;;2.25;93.40;97356.38;5045599;28;20205;-80
2023/02/05 01:42:24;;;;;;;7.57;4.37;;;;;;;2.23;93.90;97360.72;5050205;28;20560;-79
2023/02/05 01:45:34;;;;;;;12.03;4.77;;;;;;;2.27;92.95;97357.16;5033990;28;20610;-81
2023/02/05 01:48:01;;;;;;;9.10;4.30;;;;;;;2.22;93.03;97354.75;5042598;28;20220;-80
2023/02/05 01:50:29;;;;;;;18.37;5.27;;;;;;;2.09;93.31;97350.09;5035330;28;20190;-80
2023/02/05 01:52:56;;;;;;;11.77;4.27;;;;;;;2.04;93.81;97344.31;5040160;28;20203;-80
2023/02/05 01:55:22;;;;;;;10.47;3.43;;;;;;;1.94;94.10;97338.63;5025431;28;20196;-80
2023/02/05 01:57:48;;;;;;;8.87;3.53;;;;;;;1.94;94.13;97344.59;5048566;28;20186;-80
2023/02/05 02:00:14;;;;;;;11.20;3.93;;;;;;;1.95;93.92;97350.56;5033695;28;20253;-80
2023/02/05 02:02:39;;;;;;;11.13;3.57;;;;;;;1.95;94.18;97340.31;5022774;28;20632;-81
2023/02/05 02:05:10;;;;;;;8.07;3.20;;;;;;;1.91;93.86;97331.88;5045062;28;20676;-80
2023/02/05 02:07:35;;;;;;;15.47;4.13;;;;;;;1.90;94.72;97335.34;5034145;28;20182;-80
2023/02/05 02:10:01;;;;;;;9.00;3.30;;;;;;;1.91;94.19;97334.44;5021421;28;20550;-80
2023/02/05 02:12:29;;;;;;;7.60;3.40;;;;;;;1.97;94.01;97331.69;5036310;28;20238;-80
2023/02/05 02:14:59;;;;;;;7.37;3.20;;;;;;;1.96;94.06;97324.88;5036284;28;20243;-81
2023/02/05 02:17:25;;;;;;;11.83;3.50;;;;;;;2.02;93.49;97312.75;5037047;28;20285;-81
2023/02/05 02:20:04;;;;;;;9.37;3.47;;;;;;;1.97;93.67;97324.00;5036548;28;20185;-80
2023/02/05 02:22:42;;;;;;;10.07;3.70;;;;;;;1.90;93.79;97322.53;5025314;28;20880;-81
2023/02/05 02:25:29;;;;;;;8.40;2.90;;;;;;;1.96;93.88;97331.75;5069167;28;20246;-80
2023/02/05 02:28:08;;;;;;;13.73;3.70;;;;;;;1.96;94.42;97322.31;5057595;28;20194;-82
2023/02/05 02:30:56;;;;;;;7.10;3.13;;;;;;;1.86;94.93;97318.41;5044172;28;20289;-80
2023/02/05 02:33:31;;;;;;;13.33;3.40;;;;;;;1.86;94.54;97303.03;5020462;28;20685;-79
2023/02/05 02:35:59;;;;;;;10.87;3.10;;;;;;;1.86;94.74;97304.75;5028769;28;20194;-80
2023/02/05 02:38:34;;;;;;;9.93;3.50;;;;;;;1.88;94.58;97303.81;5045121;28;20201;-80
2023/02/05 02:41:03;;;;;;;11.37;3.67;;;;;;;1.79;94.85;97309.25;5038958;28;20186;-82
2023/02/05 02:43:41;;;;;;;8.00;3.77;;;;;;;1.84;94.79;97306.50;5029641;28;20212;-80
2023/02/05 02:46:16;;;;;;;9.57;3.63;;;;;;;1.81;95.34;97299.78;5068460;28;20193;-81
2023/02/05 02:48:42;;;;;;;13.23;3.57;;;;;;;1.79;95.12;97288.75;5060938;28;20190;-81
2023/02/05 02:51:10;;;;;;;9.67;3.93;;;;;;;1.73;94.62;97293.22;5048447;28;20182;-82
2023/02/05 02:53:39;;;;;;;9.37;3.27;;;;;;;1.64;94.71;97284.97;5033065;28;20197;-81
2023/02/05 02:56:06;;;;;;;15.53;3.30;;;;;;;1.62;94.58;97285.91;5055736;28;20185;-81
2023/02/05 02:58:34;;;;;;;9.30;3.53;;;;;;;1.65;94.39;97285.81;5060760;28;20193;-81
2023/02/05 03:01:00;;;;;;;12.00;3.27;;;;;;;1.58;94.67;97290.28;5059919;28;20204;-81
2023/02/05 03:03:27;;;;;;;7.70;3.40;;;;;;;1.64;94.45;97289.25;5052861;28;20186;-81
2023/02/05 03:05:54;;;;;;;9.40;3.13;;;;;;;1.52;94.99;97285.38;5045514;28;20616;-80
2023/02/05 03:08:29;;;;;;;5.57;2.80;;;;;;;1.51;94.86;97288.00;5043750;28;20189;-80
2023/02/05 03:11:01;;;;;;;8.73;3.70;;;;;;;1.50;94.28;97287.13;5045915;28;20292;-82
2023/02/05 03:13:26;;;;;;;12.23;3.87;;;;;;;1.49;94.61;97285.47;5052008;28;20666;-81
2023/02/05 03:15:52;;;;;;;9.87;3.33;;;;;;;1.36;94.92;97285.03;5056769;28;20189;-80
2023/02/05 03:18:18;;;;;;;10.23;2.80;;;;;;;1.33;94.47;97287.69;5055089;28;20178;-81
2023/02/05 03:20:55;;;;;;;10.23;3.13;;;;;;;1.36;94.12;97281.63;5049350;28;20205;-80
2023/02/05 03:23:21;;;;;;;6.33;2.90;;;;;;;1.18;95.60;97279.66;5051972;28;20890;-80
2023/02/05 03:25:46;;;;;;;10.93;3.40;;;;;;;1.24;94.97;97279.47;5041925;28;20212;-82
2023/02/05 03:28:12;;;;;;;10.73;3.50;;;;;;;1.26;95.10;97268.31;5055769;28;20182;-82
2023/02/05 03:31:03;;;;;;;13.20;4.50;;;;;;;1.28;93.62;97270.81;5033764;28;20576;-81
2023/02/05 03:33:38;;;;;;;11.43;3.37;;;;;;;1.19;94.73;97263.44;5061976;28;20232;-82
2023/02/05 03:36:08;;;;;;;9.47;3.20;;;;;;;1.24;94.30;97259.00;5048636;28;20174;-81
2023/02/05 03:38:51;;;;;;;9.63;3.37;;;;;;;1.20;94.45;97257.41;5053959;28;20731;-80
2023/02/05 03:41:54;;;;;;;11.03;3.93;;;;;;;1.13;94.25;97256.75;5061733;28;20194;-82
2023/02/05 03:44:24;;;;;;;9.77;3.07;;;;;;;1.15;94.63;97270.38;5059698;28;20195;-82
2023/02/05 03:47:00;;;;;;;11.13;3.60;;;;;;;1.15;94.68;97265.25;5052984;28;20188;-81
2023/02/05 03:49:37;;;;;;;20.13;4.90;;;;;;;1.20;95.19;97273.59;5045723;28;20869;-81
2023/02/05 03:52:09;;;;;;;13.47;4.50;;;;;;;1.24;95.63;97267.53;5045815;28;20232;-82
2023/02/05 03:55:11;;;;;;;13.90;3.93;;;;;;;1.32;95.21;97262.13;5055675;28;20184;-80
2023/02/05 03:58:08;;;;;;;10.77;4.43;;;;;;;1.41;94.62;97249.91;5059386;28;20608;-82
2023/02/05 04:00:34;;;;;;;11.57;4.43;;;;;;;1.52;94.35;97257.22;5059798;28;20204;-80
2023/02/05 04:02:59;;;;;;;7.73;4.17;;;;;;;1.57;94.82;97257.06;5043797;28;20205;-80
2023/02/05 04:05:24;;;;;;;12.97;4.87;;;;;;;1.59;94.13;97251.00;5050030;28;20194;-81
2023/02/05 04:07:50;;;;;;;10.40;4.53;;;;;;;1.67;93.71;97258.41;5042555;28;20210;-80
2023/02/05 04:10:17;;;;;;;14.73;4.90;;;;;;;1.65;94.28;97252.50;5058077;28;20241;-80
2023/02/05 04:12:42;;;;;;;16.90;5.00;;;;;;;1.69;94.25;97251.53;5050258;28;20206;-81
2023/02/05 04:15:08;;;;;;;12.97;5.63;;;;;;;1.83;93.29;97251.03;5045273;28;20236;-81
2023/02/05 04:17:33;;;;;;;10.60;4.50;;;;;;;1.85;93.77;97255.22;5044018;28;20174;-81
2023/02/05 04:19:59;;;;;;;11.57;4.90;;;;;;;1.88;93.32;97259.44;5053016;28;20600;-80
2023/02/05 04:22:24;;;;;;;13.27;4.77;;;;;;;1.92;93.19;97261.81;5057211;28;20206;-81
2023/02/05 04:24:49;;;;;;;11.63;4.33;;;;;;;1.88;93.52;97262.00;5062102;28;20220;-81
2023/02/05 04:27:15;;;;;;;10.70;4.00;;;;;;;1.86;93.14;97256.09;5043474;28;20218;-82
2023/02/05 04:29:40;;;;;;;11.57;3.70;;;;;;;1.81;93.36;97260.50;5059318;28;20194;-81
2023/02/05 04:32:05;;;;;;;12.57;3.90;;;;;;;1.92;93.46;97256.69;5045464;28;20718;-80
2023/02/05 04:34:30;;;;;;;11.80;4.50;;;;;;;2.01;92.80;97257.25;5044954;28;20260;-81
2023/02/05 04:36:56;;;;;;;16.60;4.97;;;;;;;2.07;92.69;97263.00;5049526;28;20227;-81
2023/02/05 04:39:21;;;;;;;24.47;9.37;;;;;;;2.09;92.55;97262.94;5058300;28;20201;-80
2023/02/05 04:41:46;;;;;;;89.73;41.00;;;;;;;2.12;92.57;97271.38;5062991;28;20574;-80
2023/02/05 04:44:13;;;;;;;71.13;36.87;;;;;;;2.12;92.49;97270.53;5058458;28;20371;-81
2023/02/05 04:46:38;;;;;;;50.07;27.43;;;;;;;2.16;92.96;97279.78;5049244;28;20218;-82
2023/02/05 04:49:03;;;;;;;29.47;17.10;;;;;;;2.21;93.01;97275.34;5043879;28;20206;-82
2023/02/05 04:51:29;;;;;;;16.93;6.83;;;;;;;2.20;92.53;97265.97;5045067;28;20218;-80
2023/02/05 04:53:54;;;;;;;12.53;6.57;;;;;;;2.13;93.13;97272.22;5050993;28;20194;-81
2023/02/05 04:56:19;;;;;;;9.73;5.17;;;;;;;2.18;92.67;97260.91;5055907;28;20197;-80
2023/02/05 04:58:44;;;;;;;13.40;4.40;;;;;;;2.23;92.34;97263.31;5044895;28;20200;-81
2023/02/05 05:01:18;;;;;;;13.13;4.07;;;;;;;2.26;92.38;97264.03;5047929;28;20210;-81
2023/02/05 05:03:44;;;;;;;15.07;4.30;;;;;;;2.27;92.36;97267.41;5053299;28;20178;-81
2023/02/05 05:06:10;;;;;;;12.13;3.80;;;;;;;2.29;92.06;97268.19;5057002;28;20562;-81
2023/02/05 05:08:35;;;;;;;12.23;4.97;;;;;;;2.29;92.16;97265.63;5058324;28;20217;-80
2023/02/05 05:11:09;;;;;;;11.03;5.57;;;;;;;2.35;92.19;97272.28;5053757;28;20185;-80
2023/02/05 05:13:35;;;;;;;13.33;6.60;;;;;;;2.30;91.98;97269.91;5049331;28;20190;-81
2023/02/05 05:16:00;;;;;;;19.40;6.97;;;;;;;2.27;92.31;97259.72;5043483;28;20183;-81
2023/02/05 05:18:26;;;;;;;14.33;5.97;;;;;;;2.18;93.52;97271.16;5048340;28;20301;-80
2023/02/05 05:20:51;;;;;;;9.53;4.93;;;;;;;2.24;93.23;97270.09;5052382;28;20240;-80
2023/02/05 05:23:16;;;;;;;15.50;4.70;;;;;;;2.23;93.37;97261.59;5041131;28;20190;-81
2023/02/05 05:25:43;;;;;;;16.93;5.13;;;;;;;2.24;92.93;97258.13;5043347;28;20194;-81
2023/02/05 05:28:08;;;;;;;14.53;4.37;;;;;;;2.24;92.85;97265.81;5052128;28;20213;-82
2023/02/05 05:30:33;;;;;;;12.73;4.00;;;;;;;2.21;92.50;97263.38;5058121;28;20185;-80
2023/02/05 05:32:59;;;;;;;13.23;4.10;;;;;;;2.27;92.72;97259.72;5059609;28;20577;-80
2023/02/05 05:35:24;;;;;;;11.17;4.33;;;;;;;2.27;92.25;97259.72;5056927;28;20188;-82
2023/02/05 05:37:49;;;;;;;10.53;3.80;;;;;;;2.33;92.28;97256.13;5048909;28;20192;-80
2023/02/05 05:45:42;;;;;;;11.97;4.13;;;;;;;2.35;92.24;97257.72;5052164;28;20209;-81
2023/02/05 05:48:08;;;;;;;14.17;4.03;;;;;;;2.37;91.81;97250.81;5052157;28;20194;-80
2023/02/05 05:50:33;;;;;;;15.40;4.43;;;;;;;2.28;91.04;97240.91;5058513;28;20221;-81
2023/02/05 05:52:59;;;;;;;11.33;4.13;;;;;;;2.26;90.47;97232.44;5053374;28;20732;-82
2023/02/05 05:55:24;;;;;;;14.93;3.93;;;;;;;2.44;90.33;97242.00;5047541;28;20246;-81
2023/02/05 05:57:49;;;;;;;11.30;4.40;;;;;;;2.50;89.95;97246.09;5044784;28;20306;-81
2023/02/05 06:00:15;;;;;;;11.40;4.10;;;;;;;2.51;89.82;97251.16;5044477;28;20244;-80
2023/02/05 06:02:42;;;;;;;14.57;4.20;;;;;;;2.54;89.77;97260.44;5051386;28;20211;-81
2023/02/05 06:05:08;;;;;;;10.00;3.97;;;;;;;2.56;89.53;97256.09;5040405;28;20185;-80
2023/02/05 06:07:33;;;;;;;9.17;4.50;;;;;;;2.59;89.39;97260.31;5040612;28;20191;-82
2023/02/05 06:09:58;;;;;;;20.90;7.70;;;;;;;2.61;89.40;97258.50;5045090;28;20550;-80
2023/02/05 06:12:24;;;;;;;17.43;6.43;;;;;;;2.61;89.11;97263.63;5051327;28;20218;-81
2023/02/05 06:14:49;;;;;;;11.87;4.63;;;;;;;2.64;89.41;97263.50;5058621;28;20195;-81
2023/02/05 06:17:14;;;;;;;17.23;4.37;;;;;;;2.60;89.22;97262.81;5041943;28;20178;-81
2023/02/05 06:19:40;;;;;;;12.03;4.23;;;;;;;2.60;89.21;97260.22;5051332;28;20248;-81
2023/02/05 06:22:05;;;;;;;12.23;4.40;;;;;;;2.64;88.54;97259.22;5043745;28;20203;-80
2023/02/05 06:24:30;;;;;;;10.63;3.50;;;;;;;2.70;88.75;97255.59;5039206;28;20685;-80
2023/02/05 06:26:55;;;;;;;16.17;4.13;;;;;;;2.71;89.13;97257.25;5044893;28;20223;-82
2023/02/05 06:29:21;;;;;;;9.53;3.73;;;;;;;2.72;89.17;97256.38;5048872;28;20196;-80
2023/02/05 06:31:46;;;;;;;15.97;4.20;;;;;;;2.72;89.86;97246.09;5036981;28;20234;-80
2023/02/05 06:34:11;;;;;;;9.90;3.80;;;;;;;2.73;89.86;97247.78;5042585;28;20179;-81
2023/02/05 06:36:37;;;;;;;14.00;5.17;;;;;;;2.77;89.54;97252.75;5055550;28;20213;-80
2023/02/05 06:39:02;;;;;;;10.73;4.00;;;;;;;2.77;90.67;97252.75;5054788;28;20619;-81
2023/02/05 06:41:27;;;;;;;8.80;4.30;;;;;;;2.81;90.32;97251.72;5042223;28;20213;-81
2023/02/05 06:43:53;;;;;;;8.70;4.03;;;;;;;2.75;90.69;97246.00;5055334;28;20189;-80
2023/02/05 06:46:18;;;;;;;11.37;4.17;;;;;;;2.77;91.13;97257.88;5046348;28;20193;-82
2023/02/05 06:48:43;;;;;;;13.20;5.33;;;;;;;2.73;91.42;97256.31;5040464;28;20198;-81
2023/02/05 06:51:08;;;;;;;9.13;4.47;;;;;;;2.76;91.63;97252.81;5042070;28;20642;-82
2023/02/05 06:53:34;;;;;;;17.97;6.07;;;;;;;2.73;92.33;97269.13;5046048;28;20209;-81
2023/02/05 06:55:59;;;;;;;18.03;4.57;;;;;;;2.70;92.10;97271.81;5050811;28;20185;-82
2023/02/05 06:58:25;;;;;;;11.77;4.23;;;;;;;2.77;92.00;97275.84;5056085;28;20186;-82
2023/02/05 07:00:50;;;;;;;12.47;3.83;;;;;;;2.72;92.37;97284.59;5052630;28;20190;-80
2023/02/05 07:03:15;;;;;;;9.67;3.77;;;;;;;2.85;91.74;97280.69;5047222;28;20202;-80
2023/02/05 07:05:41;;;;;;;10.47;3.70;;;;;;;2.78;91.53;97276.66;5042331;28;20182;-82
2023/02/05 07:08:06;;;;;;;14.20;4.83;;;;;;;2.91;91.00;97271.88;5041845;28;20186;-80
2023/02/05 07:10:31;;;;;;;14.27;4.80;;;;;;;2.99;90.80;97280.13;5046360;28;20194;-81
2023/02/05 07:12:57;;;;;;;11.97;4.67;;;;;;;2.99;90.30;97275.00;5034596;28;20206;-82
2023/02/05 07:15:22;;;;;;;17.10;4.40;;;;;;;3.05;89.90;97278.19;5054180;28;20719;-82
2023/02/05 07:17:48;;;;;;;10.23;4.03;;;;;;;2.98;90.07;97269.03;5054862;28;20196;-80
2023/02/05 07:20:15;;;;;;;8.27;3.90;;;;;;;2.90;89.83;97271.06;5046429;28;20189;-79
2023/02/05 07:22:41;;;;;;;11.70;4.03;;;;;;;3.13;89.01;97275.31;5041972;28;20251;-80
2023/02/05 07:25:07;;;;;;;14.10;4.27;;;;;;;3.05;89.31;97270.47;5037884;28;20246;-81
2023/02/05 07:27:32;;;;;;;10.93;3.80;;;;;;;3.17;89.04;97276.00;5044511;28;20276;-79
2023/02/05 07:29:58;;;;;;;11.20;3.80;;;;;;;3.17;88.31;97268.31;5037765;28;20288;-82
2023/02/05 07:32:23;;;;;;;11.90;3.63;;;;;;;3.23;88.27;97262.94;5055549;28;20205;-80
2023/02/05 07:34:48;;;;;;;14.47;4.40;;;;;;;3.20;88.12;97258.78;5046488;28;20680;-81
2023/02/05 07:37:14;;;;;;;13.43;5.10;;;;;;;3.29;88.08;97257.56;5044541;28;20554;-81
2023/02/05 07:39:39;;;;;;;14.00;4.97;;;;;;;3.28;89.01;97268.75;5040102;28;20205;-80
2023/02/05 07:42:04;;;;;;;13.37;4.70;;;;;;;3.29;89.82;97250.72;5052662;28;20242;-81
2023/02/05 07:44:30;;;;;;;13.33;4.37;;;;;;;3.25;91.06;97250.88;5042266;28;20188;-80
2023/02/05 07:46:55;;;;;;;10.53;4.43;;;;;;;3.28;91.28;97245.63;5024245;28;20197;-80
2023/02/05 07:49:21;;;;;;;14.50;4.70;;;;;;;3.11;92.77;97238.59;5034047;28;20191;-80
2023/02/05 07:51:46;;;;;;;13.60;3.80;;;;;;;3.19;93.44;97241.72;5036745;28;20209;-79
2023/02/05 07:54:13;;;;;;;10.67;4.20;;;;;;;3.25;92.80;97243.19;5044278;28;20186;-82
2023/02/05 07:56:38;;;;;;;11.00;4.40;;;;;;;3.40;92.17;97260.53;5054567;28;20182;-81
2023/02/05 07:59:05;;;;;;;14.70;4.93;;;;;;;3.37;92.07;97251.25;5036535;28;20211;-81
2023/02/05 08:01:30;;;;;;;16.83;6.17;;;;;;;3.40;91.84;97253.66;5044189;28;20694;-81
2023/02/05 08:03:56;;;;;;;14.20;6.03;;;;;;;3.20;91.54;97258.78;5038637;28;20182;-81
2023/02/05 08:06:21;;;;;;;10.50;4.70;;;;;;;3.45;90.88;97268.06;5032738;28;20180;-82
2023/02/05 08:08:46;;;;;;;11.77;4.20;;;;;;;3.50;90.57;97261.00;5018671;28;20193;-81
2023/02/05 08:11:14;;;;;;;14.67;4.80;;;;;;;3.47;90.92;97261.13;5043293;28;20207;-81
2023/02/05 08:13:40;;;;;;;13.97;5.23;;;;;;;3.56;90.84;97253.88;5051140;28;20201;-80
2023/02/05 08:16:06;;;;;;;17.30;5.17;;;;;;;3.45;92.01;97247.53;5054169;28;20241;-81
2023/02/05 08:18:32;;;;;;;12.70;5.10;;;;;;;3.54;91.69;97253.13;5049957;28;20213;-81
2023/02/05 08:20:57;;;;;;;12.60;5.17;;;;;;;3.67;91.09;97254.28;5042556;28;20206;-82
2023/02/05 08:23:22;;;;;;;16.03;4.97;;;;;;;3.69;91.11;97254.19;5037992;28;20410;-82
2023/02/05 08:25:52;;;;;;;10.80;4.80;;;;;;;3.70;91.43;97246.41;5039271;28;20190;-81
2023/02/05 08:28:18;;;;;;;16.10;5.77;;;;;;;3.63;91.54;97237.31;5042876;28;20224;-80
2023/02/05 08:30:43;;;;;;;11.93;4.97;;;;;;;3.64;92.20;97227.88;5043512;28;20205;-82
2023/02/05 08:33:08;;;;;;;14.20;5.00;;;;;;;3.56;93.00;97228.19;5037934;28;20237;-80
2023/02/05 08:35:34;;;;;;;14.13;6.30;;;;;;;3.54;93.66;97218.91;5042721;28;20184;-80
2023/02/05 08:37:59;;;;;;;16.63;8.77;;;;;;;3.53;93.81;97224.91;5047158;28;20189;-79
2023/02/05 08:40:24;;;;;;;13.50;7.10;;;;;;;3.62;93.09;97217.69;5052201;28;20683;-79
2023/02/05 08:42:51;;;;;;;9.83;4.90;;;;;;;3.74;93.43;97212.91;5046935;28;20206;-79
2023/02/05 08:45:17;;;;;;;13.77;7.20;;;;;;;3.82;92.69;97216.81;5043797;28;20189;-80
2023/02/05 08:47:43;;;;;;;15.93;6.13;;;;;;;3.83;93.19;97204.81;5048245;28;21115;-81
2023/02/05 08:50:09;;;;;;;18.57;9.17;;;;;;;3.87;92.44;97206.34;5051008;28;20239;-80
2023/02/05 08:52:34;;;;;;;18.63;9.53;;;;;;;3.89;92.46;97200.25;5045411;28;20209;-81
2023/02/05 08:55:00;;;;;;;18.20;10.23;;;;;;;3.92;92.37;97199.28;5038667;28;20562;-80
2023/02/05 08:57:27;;;;;;;16.53;7.93;;;;;;;3.84;92.07;97191.88;5035528;28;20277;-79
2023/02/05 08:59:52;;;;;;;11.80;6.23;;;;;;;3.95;92.10;97194.00;5019881;28;20188;-81
2023/02/05 09:02:18;;;;;;;14.43;5.70;;;;;;;4.06;91.74;97194.34;5042648;28;20212;-80
2023/02/05 09:04:43;;;;;;;13.53;5.53;;;;;;;4.07;92.27;97190.06;5048224;28;20193;-81
2023/02/05 09:07:08;;;;;;;15.53;5.53;;;;;;;4.06;92.23;97183.22;5050177;28;20201;-80
2023/02/05 09:09:35;;;;;;;10.87;4.90;;;;;;;4.00;93.06;97168.94;5044916;28;20639;-79
2023/02/05 09:12:01;;;;;;;15.83;5.90;;;;;;;3.88;94.35;97169.44;5039155;28;20272;-80
2023/02/05 09:14:34;;;;;;;11.77;4.93;;;;;;;3.94;95.11;97169.19;5035687;28;20663;-80
2023/02/05 09:17:02;;;;;;;15.63;6.47;;;;;;;4.25;93.58;97164.34;5045171;28;20194;-80
2023/02/05 09:19:27;;;;;;;12.20;5.27;;;;;;;3.99;94.53;97172.41;5039251;28;20278;-81
2023/02/05 09:21:53;;;;;;;14.47;5.93;;;;;;;4.08;95.07;97164.28;5043575;28;20234;-82
2023/02/05 09:24:18;;;;;;;12.30;5.33;;;;;;;4.16;94.49;97164.78;5051925;28;20186;-80
2023/02/05 09:26:43;;;;;;;15.13;5.40;;;;;;;4.02;95.71;97166.28;5045925;28;20194;-80
2023/02/05 09:29:08;;;;;;;46.77;7.67;;;;;;;4.02;95.72;97166.28;5037480;28;20706;-79
2023/02/05 09:31:34;;;;;;;26.67;5.33;;;;;;;4.16;95.52;97157.06;5024496;28;20214;-80
2023/02/05 09:34:01;;;;;;;12.93;5.30;;;;;;;4.16;95.70;97154.50;5023828;28;20194;-79
2023/02/05 09:36:26;;;;;;;10.83;5.97;;;;;;;4.11;95.71;97153.84;5050807;28;20684;-80
2023/02/05 09:38:52;;;;;;;9.10;4.87;;;;;;;3.88;97.76;97147.16;5053313;28;20202;-79
2023/02/05 09:41:44;;;;;;;20.23;6.80;;;;;;;4.14;97.15;97150.31;5035485;28;20264;-79
2023/02/05 09:44:25;;;;;;;9.20;4.57;;;;;;;4.03;97.56;97152.53;5049713;28;20289;-80
2023/02/05 09:46:58;;;;;;;12.30;5.60;;;;;;;4.08;97.42;97150.59;5038027;28;20187;-80
2023/02/05 09:49:28;;;;;;;13.00;6.53;;;;;;;4.07;98.23;97147.19;5017175;28;20257;-80
2023/02/05 09:52:03;;;;;;;17.53;7.00;;;;;;;4.21;97.56;97149.97;5046959;28;20218;-79
2023/02/05 09:54:41;;;;;;;20.03;7.97;;;;;;;4.22;98.05;97161.91;5033441;28;20603;-80
2023/02/05 09:57:10;;;;;;;19.27;10.07;;;;;;;4.18;98.40;97157.00;5036724;28;20245;-80
2023/02/05 09:59:36;;;;;;;19.50;8.93;;;;;;;4.20;98.51;97158.56;5043834;28;20174;-81
2023/02/05 10:02:17;;;;;;;18.57;9.20;;;;;;;4.27;98.00;97161.72;5051854;28;20708;-79
2023/02/05 10:04:43;;;;;;;23.20;9.37;;;;;;;4.19;99.16;97151.78;5056604;28;20196;-81
2023/02/05 10:07:25;;;;;;;11.37;6.53;;;;;;;4.12;99.83;97152.94;5057704;28;20188;-81
2023/02/05 10:10:23;;;;;;;13.63;7.50;;;;;;;4.35;98.79;97158.78;5050651;28;20255;-80
2023/02/05 10:13:26;;;;;;;14.00;7.53;;;;;;;4.35;98.58;97158.78;5073693;28;20220;-81
2023/02/05 10:16:08;;;;;;;18.20;8.27;;;;;;;4.31;99.12;97154.69;5077398;28;20181;-80
2023/02/05 10:19:01;;;;;;;16.70;7.70;;;;;;;4.29;99.43;97152.19;5063576;28;20248;-78
2023/02/05 10:22:00;;;;;;;17.23;8.80;;;;;;;4.26;100.00;97140.31;5075066;28;20704;-78
2023/02/05 10:24:39;;;;;;;17.43;7.77;;;;;;;4.34;99.64;97121.97;5073674;28;20545;-80
2023/02/05 10:27:08;;;;;;;15.03;8.03;;;;;;;4.34;99.99;97123.69;5052390;28;20193;-81
2023/02/05 10:30:00;;;;;;;20.13;9.87;;;;;;;4.48;99.53;97119.56;5055076;28;20235;-80
2023/02/05 10:32:55;;;;;;;14.53;9.67;;;;;;;4.42;100.00;97113.88;5077536;28;20603;-80
2023/02/05 10:35:28;;;;;;;23.47;9.97;;;;;;;4.56;99.18;97121.78;5071406;28;20201;-80
2023/02/05 10:37:55;;;;;;;16.20;9.70;;;;;;;4.60;98.81;97118.16;5051531;28;20263;-82
2023/02/05 10:40:33;;;;;;;14.87;8.13;;;;;;;4.59;98.60;97108.75;5063084;28;20189;-80
2023/02/05 10:43:21;;;;;;;12.83;7.37;;;;;;;4.73;98.31;97115.81;5070755;28;20210;-80
2023/02/05 10:45:48;;;;;;;16.10;7.40;;;;;;;4.63;98.79;97109.47;5081193;28;20188;-80
2023/02/05 10:48:32;;;;;;;14.27;7.37;;;;;;;4.75;97.92;97116.56;5072094;28;20177;-79
2023/02/05 10:51:00;;;;;;;14.20;7.30;;;;;;;4.65;98.32;97111.03;5063947;28;20227;-80
2023/02/05 10:53:26;;;;;;;11.30;6.80;;;;;;;4.74;98.40;97108.03;5037377;28;20261;-80
2023/02/05 10:55:52;;;;;;;13.13;6.60;;;;;;;4.80;98.45;97104.34;5050513;28;20196;-82
2023/02/05 10:58:43;;;;;;;13.90;7.37;;;;;;;4.75;98.51;97098.56;5064360;28;20204;-81
2023/02/05 11:01:15;;;;;;;10.83;7.00;;;;;;;4.85;97.58;97099.78;5053799;28;20197;-80
2023/02/05 11:03:50;;;;;;;10.60;5.97;;;;;;;4.70;98.15;97098.81;5044494;28;20277;-80
2023/02/05 11:06:15;;;;;;;17.67;7.13;;;;;;;4.76;98.48;97100.22;5041568;28;20734;-80
2023/02/05 11:08:46;;;;;;;13.27;7.07;;;;;;;4.76;98.02;97097.66;5048360;28;20194;-79
2023/02/05 11:11:23;;;;;;;10.73;7.17;;;;;;;4.57;99.00;97091.72;5054007;28;20202;-81
2023/02/05 11:13:54;;;;;;;13.77;6.67;;;;;;;4.68;98.76;97092.03;5063023;28;20176;-81
2023/02/05 11:16:21;;;;;;;13.33;7.13;;;;;;;4.75;98.20;97081.38;5041172;28;20201;-80
2023/02/05 11:18:56;;;;;;;15.10;7.57;;;;;;;4.73;98.52;97083.19;5051210;28;20194;-81
2023/02/05 11:21:21;;;;;;;15.13;7.90;;;;;;;4.68;98.89;97080.03;5043157;28;20588;-78
2023/02/05 11:23:55;;;;;;;13.70;7.77;;;;;;;4.71;99.16;97072.16;5046212;28;20195;-80
2023/02/05 11:26:23;;;;;;;14.13;8.50;;;;;;;4.60;99.57;97066.72;5059236;28;20547;-81
2023/02/05 11:28:48;;;;;;;13.03;8.47;;;;;;;4.76;99.19;97059.88;5055370;28;20279;-81
2023/02/05 11:31:30;;;;;;;18.03;9.03;;;;;;;4.81;98.98;97064.81;5045567;28;20230;-80
2023/02/05 11:34:07;;;;;;;31.07;21.20;;;;;;;4.78;98.58;97059.84;5040351;28;20208;-79
2023/02/05 11:36:35;;;;;;;38.37;23.57;;;;;;;4.67;99.71;97062.06;5045973;28;20193;-79
2023/02/05 11:39:00;;;;;;;15.17;11.30;;;;;;;4.58;100.00;97058.22;5036506;28;20244;-81
2023/02/05 11:41:28;;;;;;;19.40;9.43;;;;;;;4.69;99.73;97060.28;5042704;28;20262;-79
2023/02/05 11:43:55;;;;;;;16.10;9.50;;;;;;;4.73;99.42;97057.47;5044995;28;20639;-87
2023/02/05 11:46:23;;;;;;;14.30;10.03;;;;;;;4.55;99.94;97055.78;5055687;28;20191;-80